sensor_id;sensor_type;location;lat;lon;timestamp;P1;durP1;ratioP1;P2;durP2;ratioP2
77888;SDS011;67082;41.704;44.768;2023-08-07T00:00:32;14.00;;;5.18;;
77888;SDS011;67082;41.704;44.768;2023-08-07T00:03:20;8.85;;;4.63;;
77888;SDS011;67082;41.704;44.768;2023-08-07T00:05:50;10.68;;;4.13;;
77888;SDS011;67082;41.704;44.768;2023-08-07T00:08:22;11.10;;;4.45;;
77888;SDS011;67082;41.704;44.768;2023-08-07T00:10:50;11.77;;;4.78;;
77888;SDS011;67082;41.704;44.768;2023-08-07T00:13:19;16.00;;;4.85;;
77888;SDS011;67082;41.704;44.768;2023-08-07T00:15:47;14.23;;;5.10;;
77888;SDS011;67082;41.704;44.768;2023-08-07T00:18:15;11.52;;;4.50;;
77888;SDS011;67082;41.704;44.768;2023-08-07T00:20:43;10.90;;;4.50;;
77888;SDS011;67082;41.704;44.768;2023-08-07T00:23:11;9.48;;;3.97;;
77888;SDS011;67082;41.704;44.768;2023-08-07T00:25:40;11.10;;;4.30;;
77888;SDS011;67082;41.704;44.768;2023-08-07T00:28:08;9.82;;;4.50;;
77888;SDS011;67082;41.704;44.768;2023-08-07T00:30:37;11.18;;;4.40;;
77888;SDS011;67082;41.704;44.768;2023-08-07T00:33:05;10.93;;;4.43;;
77888;SDS011;67082;41.704;44.768;2023-08-07T00:35:33;14.23;;;4.72;;
77888;SDS011;67082;41.704;44.768;2023-08-07T00:38:02;11.30;;;4.30;;
77888;SDS011;67082;41.704;44.768;2023-08-07T00:40:40;13.43;;;4.80;;
77888;SDS011;67082;41.704;44.768;2023-08-07T00:43:08;11.30;;;4.63;;
77888;SDS011;67082;41.704;44.768;2023-08-07T00:45:41;13.63;;;4.18;;
77888;SDS011;67082;41.704;44.768;2023-08-07T00:48:10;18.23;;;4.40;;
77888;SDS011;67082;41.704;44.768;2023-08-07T00:50:40;11.45;;;4.28;;
77888;SDS011;67082;41.704;44.768;2023-08-07T00:53:14;12.10;;;4.82;;
77888;SDS011;67082;41.704;44.768;2023-08-07T00:55:42;16.33;;;4.68;;
77888;SDS011;67082;41.704;44.768;2023-08-07T00:58:10;10.25;;;4.20;;
77888;SDS011;67082;41.704;44.768;2023-08-07T01:00:39;12.80;;;4.40;;
77888;SDS011;67082;41.704;44.768;2023-08-07T01:03:10;13.90;;;4.72;;
77888;SDS011;67082;41.704;44.768;2023-08-07T01:05:42;11.90;;;4.35;;
77888;SDS011;67082;41.704;44.768;2023-08-07T01:08:10;12.57;;;4.50;;
77888;SDS011;67082;41.704;44.768;2023-08-07T01:13:48;14.10;;;4.90;;
77888;SDS011;67082;41.704;44.768;2023-08-07T01:16:21;12.18;;;4.25;;
77888;SDS011;67082;41.704;44.768;2023-08-07T01:19:08;15.05;;;4.78;;
77888;SDS011;67082;41.704;44.768;2023-08-07T01:21:49;13.02;;;4.50;;
77888;SDS011;67082;41.704;44.768;2023-08-07T01:24:18;10.27;;;4.80;;
77888;SDS011;67082;41.704;44.768;2023-08-07T01:26:49;15.48;;;4.88;;
77888;SDS011;67082;41.704;44.768;2023-08-07T01:29:25;8.77;;;4.20;;
77888;SDS011;67082;41.704;44.768;2023-08-07T01:32:00;12.45;;;4.68;;
77888;SDS011;67082;41.704;44.768;2023-08-07T01:34:33;10.15;;;4.57;;
77888;SDS011;67082;41.704;44.768;2023-08-07T01:37:02;11.15;;;4.55;;
77888;SDS011;67082;41.704;44.768;2023-08-07T01:39:32;9.20;;;4.47;;
77888;SDS011;67082;41.704;44.768;2023-08-07T01:42:03;13.80;;;4.65;;
77888;SDS011;67082;41.704;44.768;2023-08-07T01:44:32;11.13;;;4.53;;
77888;SDS011;67082;41.704;44.768;2023-08-07T01:47:01;13.02;;;4.60;;
77888;SDS011;67082;41.704;44.768;2023-08-07T01:49:29;10.02;;;4.80;;
77888;SDS011;67082;41.704;44.768;2023-08-07T01:51:58;16.45;;;4.95;;
77888;SDS011;67082;41.704;44.768;2023-08-07T01:54:27;12.93;;;4.60;;
77888;SDS011;67082;41.704;44.768;2023-08-07T01:56:56;12.30;;;4.78;;
77888;SDS011;67082;41.704;44.768;2023-08-07T01:59:24;11.93;;;4.85;;
77888;SDS011;67082;41.704;44.768;2023-08-07T02:01:52;12.68;;;4.22;;
77888;SDS011;67082;41.704;44.768;2023-08-07T02:04:39;10.35;;;4.78;;
77888;SDS011;67082;41.704;44.768;2023-08-07T02:07:07;17.42;;;5.10;;
77888;SDS011;67082;41.704;44.768;2023-08-07T02:09:35;12.48;;;5.00;;
77888;SDS011;67082;41.704;44.768;2023-08-07T02:12:03;11.85;;;4.72;;
77888;SDS011;67082;41.704;44.768;2023-08-07T02:14:32;11.82;;;4.40;;
77888;SDS011;67082;41.704;44.768;2023-08-07T02:17:00;14.77;;;5.00;;
77888;SDS011;67082;41.704;44.768;2023-08-07T02:19:28;16.92;;;4.65;;
77888;SDS011;67082;41.704;44.768;2023-08-07T02:21:59;14.75;;;4.88;;
77888;SDS011;67082;41.704;44.768;2023-08-07T02:24:27;12.55;;;4.43;;
77888;SDS011;67082;41.704;44.768;2023-08-07T02:26:55;11.18;;;4.43;;
77888;SDS011;67082;41.704;44.768;2023-08-07T02:29:24;13.45;;;4.20;;
77888;SDS011;67082;41.704;44.768;2023-08-07T02:31:53;10.05;;;4.45;;
77888;SDS011;67082;41.704;44.768;2023-08-07T02:34:21;15.60;;;4.60;;
77888;SDS011;67082;41.704;44.768;2023-08-07T02:36:50;12.00;;;4.47;;
77888;SDS011;67082;41.704;44.768;2023-08-07T02:39:18;8.93;;;4.30;;
77888;SDS011;67082;41.704;44.768;2023-08-07T02:41:46;11.07;;;4.25;;
77888;SDS011;67082;41.704;44.768;2023-08-07T02:44:14;10.65;;;4.03;;
77888;SDS011;67082;41.704;44.768;2023-08-07T02:46:45;7.15;;;3.92;;
77888;SDS011;67082;41.704;44.768;2023-08-07T02:49:13;13.93;;;4.30;;
77888;SDS011;67082;41.704;44.768;2023-08-07T02:51:41;10.30;;;4.45;;
77888;SDS011;67082;41.704;44.768;2023-08-07T02:54:10;10.07;;;4.13;;
77888;SDS011;67082;41.704;44.768;2023-08-07T02:56:39;24.02;;;4.60;;
77888;SDS011;67082;41.704;44.768;2023-08-07T02:59:07;10.95;;;4.30;;
77888;SDS011;67082;41.704;44.768;2023-08-07T03:01:35;12.95;;;4.20;;
77888;SDS011;67082;41.704;44.768;2023-08-07T03:04:04;15.15;;;4.30;;
77888;SDS011;67082;41.704;44.768;2023-08-07T03:06:32;12.70;;;4.03;;
77888;SDS011;67082;41.704;44.768;2023-08-07T03:09:00;13.35;;;4.88;;
77888;SDS011;67082;41.704;44.768;2023-08-07T03:11:29;10.63;;;4.28;;
77888;SDS011;67082;41.704;44.768;2023-08-07T03:13:57;9.82;;;4.10;;
77888;SDS011;67082;41.704;44.768;2023-08-07T03:16:26;12.23;;;4.28;;
77888;SDS011;67082;41.704;44.768;2023-08-07T03:18:54;8.90;;;4.00;;
77888;SDS011;67082;41.704;44.768;2023-08-07T03:21:22;12.23;;;4.50;;
77888;SDS011;67082;41.704;44.768;2023-08-07T03:23:50;12.32;;;4.30;;
77888;SDS011;67082;41.704;44.768;2023-08-07T03:26:19;13.45;;;4.07;;
77888;SDS011;67082;41.704;44.768;2023-08-07T03:28:49;9.98;;;3.65;;
77888;SDS011;67082;41.704;44.768;2023-08-07T03:31:18;12.25;;;4.13;;
77888;SDS011;67082;41.704;44.768;2023-08-07T03:33:46;9.50;;;3.72;;
77888;SDS011;67082;41.704;44.768;2023-08-07T03:36:17;10.68;;;4.22;;
77888;SDS011;67082;41.704;44.768;2023-08-07T03:38:45;9.95;;;3.70;;
77888;SDS011;67082;41.704;44.768;2023-08-07T03:41:13;13.68;;;3.58;;
77888;SDS011;67082;41.704;44.768;2023-08-07T03:43:42;13.27;;;3.85;;
77888;SDS011;67082;41.704;44.768;2023-08-07T03:46:10;11.02;;;3.97;;
77888;SDS011;67082;41.704;44.768;2023-08-07T03:48:38;11.20;;;4.10;;
77888;SDS011;67082;41.704;44.768;2023-08-07T03:51:08;12.77;;;4.40;;
77888;SDS011;67082;41.704;44.768;2023-08-07T03:53:40;11.23;;;3.90;;
77888;SDS011;67082;41.704;44.768;2023-08-07T03:56:09;13.45;;;4.18;;
77888;SDS011;67082;41.704;44.768;2023-08-07T03:58:37;13.18;;;3.78;;
77888;SDS011;67082;41.704;44.768;2023-08-07T04:01:06;11.70;;;4.10;;
77888;SDS011;67082;41.704;44.768;2023-08-07T04:03:34;15.95;;;4.70;;
77888;SDS011;67082;41.704;44.768;2023-08-07T04:06:03;12.05;;;4.45;;
77888;SDS011;67082;41.704;44.768;2023-08-07T04:08:33;15.05;;;4.10;;
77888;SDS011;67082;41.704;44.768;2023-08-07T04:11:02;11.43;;;4.40;;
77888;SDS011;67082;41.704;44.768;2023-08-07T04:13:34;12.98;;;4.38;;
77888;SDS011;67082;41.704;44.768;2023-08-07T04:16:03;16.50;;;4.95;;
77888;SDS011;67082;41.704;44.768;2023-08-07T04:18:33;6.70;;;3.88;;
77888;SDS011;67082;41.704;44.768;2023-08-07T04:21:06;11.65;;;3.83;;
77888;SDS011;67082;41.704;44.768;2023-08-07T04:23:34;12.32;;;4.45;;
77888;SDS011;67082;41.704;44.768;2023-08-07T04:26:03;13.50;;;4.18;;
77888;SDS011;67082;41.704;44.768;2023-08-07T04:28:31;13.90;;;4.30;;
77888;SDS011;67082;41.704;44.768;2023-08-07T04:30:59;10.20;;;4.05;;
77888;SDS011;67082;41.704;44.768;2023-08-07T04:33:28;12.95;;;4.63;;
77888;SDS011;67082;41.704;44.768;2023-08-07T04:35:57;14.00;;;4.10;;
77888;SDS011;67082;41.704;44.768;2023-08-07T04:38:24;16.05;;;4.72;;
77888;SDS011;67082;41.704;44.768;2023-08-07T04:40:55;16.58;;;4.20;;
77888;SDS011;67082;41.704;44.768;2023-08-07T04:43:23;12.82;;;4.60;;
77888;SDS011;67082;41.704;44.768;2023-08-07T04:45:52;17.77;;;4.25;;
77888;SDS011;67082;41.704;44.768;2023-08-07T04:48:20;16.05;;;4.18;;
77888;SDS011;67082;41.704;44.768;2023-08-07T04:50:50;16.38;;;4.80;;
77888;SDS011;67082;41.704;44.768;2023-08-07T04:53:18;13.98;;;4.60;;
77888;SDS011;67082;41.704;44.768;2023-08-07T04:55:46;13.73;;;4.03;;
77888;SDS011;67082;41.704;44.768;2023-08-07T04:58:14;18.85;;;4.60;;
77888;SDS011;67082;41.704;44.768;2023-08-07T05:00:42;13.88;;;4.22;;
77888;SDS011;67082;41.704;44.768;2023-08-07T05:03:10;13.23;;;4.97;;
77888;SDS011;67082;41.704;44.768;2023-08-07T05:05:39;15.82;;;4.57;;
77888;SDS011;67082;41.704;44.768;2023-08-07T05:08:07;12.00;;;4.30;;
77888;SDS011;67082;41.704;44.768;2023-08-07T05:10:35;12.02;;;4.45;;
77888;SDS011;67082;41.704;44.768;2023-08-07T05:13:03;16.90;;;4.50;;
77888;SDS011;67082;41.704;44.768;2023-08-07T05:15:31;15.35;;;4.53;;
77888;SDS011;67082;41.704;44.768;2023-08-07T05:17:59;15.13;;;4.82;;
77888;SDS011;67082;41.704;44.768;2023-08-07T05:20:28;15.98;;;4.50;;
77888;SDS011;67082;41.704;44.768;2023-08-07T05:22:56;15.95;;;5.28;;
77888;SDS011;67082;41.704;44.768;2023-08-07T05:25:24;19.20;;;4.65;;
77888;SDS011;67082;41.704;44.768;2023-08-07T05:27:53;17.67;;;6.35;;
77888;SDS011;67082;41.704;44.768;2023-08-07T05:30:21;20.50;;;6.03;;
77888;SDS011;67082;41.704;44.768;2023-08-07T05:32:49;14.05;;;4.60;;
77888;SDS011;67082;41.704;44.768;2023-08-07T05:35:18;17.23;;;4.70;;
77888;SDS011;67082;41.704;44.768;2023-08-07T05:37:46;17.48;;;4.70;;
77888;SDS011;67082;41.704;44.768;2023-08-07T05:40:17;15.20;;;5.22;;
77888;SDS011;67082;41.704;44.768;2023-08-07T05:42:46;17.80;;;4.38;;
77888;SDS011;67082;41.704;44.768;2023-08-07T05:45:14;16.52;;;4.20;;
77888;SDS011;67082;41.704;44.768;2023-08-07T05:47:42;22.02;;;4.45;;
77888;SDS011;67082;41.704;44.768;2023-08-07T05:50:11;12.07;;;4.60;;
77888;SDS011;67082;41.704;44.768;2023-08-07T05:52:39;17.27;;;4.85;;
77888;SDS011;67082;41.704;44.768;2023-08-07T05:55:07;18.90;;;4.70;;
77888;SDS011;67082;41.704;44.768;2023-08-07T05:57:35;18.35;;;4.63;;
77888;SDS011;67082;41.704;44.768;2023-08-07T06:00:04;14.10;;;4.43;;
77888;SDS011;67082;41.704;44.768;2023-08-07T06:02:39;19.23;;;4.68;;
77888;SDS011;67082;41.704;44.768;2023-08-07T06:05:10;16.40;;;4.32;;
77888;SDS011;67082;41.704;44.768;2023-08-07T06:07:43;16.55;;;4.90;;
77888;SDS011;67082;41.704;44.768;2023-08-07T06:10:12;15.77;;;4.40;;
77888;SDS011;67082;41.704;44.768;2023-08-07T06:12:40;15.50;;;4.53;;
77888;SDS011;67082;41.704;44.768;2023-08-07T06:15:08;19.42;;;3.90;;
77888;SDS011;67082;41.704;44.768;2023-08-07T06:17:36;17.15;;;4.13;;
77888;SDS011;67082;41.704;44.768;2023-08-07T06:20:08;11.82;;;4.00;;
77888;SDS011;67082;41.704;44.768;2023-08-07T06:22:39;13.02;;;4.10;;
77888;SDS011;67082;41.704;44.768;2023-08-07T06:25:07;14.52;;;3.97;;
77888;SDS011;67082;41.704;44.768;2023-08-07T06:27:36;13.32;;;4.07;;
77888;SDS011;67082;41.704;44.768;2023-08-07T06:30:04;15.40;;;4.30;;
77888;SDS011;67082;41.704;44.768;2023-08-07T06:32:33;19.23;;;4.18;;
77888;SDS011;67082;41.704;44.768;2023-08-07T06:35:01;16.35;;;4.22;;
77888;SDS011;67082;41.704;44.768;2023-08-07T06:37:30;16.48;;;4.15;;
77888;SDS011;67082;41.704;44.768;2023-08-07T06:39:59;9.75;;;4.15;;
77888;SDS011;67082;41.704;44.768;2023-08-07T06:42:30;15.73;;;3.97;;
77888;SDS011;67082;41.704;44.768;2023-08-07T06:45:00;11.85;;;3.90;;
77888;SDS011;67082;41.704;44.768;2023-08-07T06:47:30;13.85;;;3.75;;
77888;SDS011;67082;41.704;44.768;2023-08-07T06:49:58;14.10;;;4.30;;
77888;SDS011;67082;41.704;44.768;2023-08-07T06:52:26;20.67;;;5.03;;
77888;SDS011;67082;41.704;44.768;2023-08-07T06:54:55;14.73;;;3.88;;
77888;SDS011;67082;41.704;44.768;2023-08-07T06:57:23;15.95;;;3.65;;
77888;SDS011;67082;41.704;44.768;2023-08-07T06:59:51;14.50;;;4.00;;
77888;SDS011;67082;41.704;44.768;2023-08-07T07:02:19;12.85;;;3.80;;
77888;SDS011;67082;41.704;44.768;2023-08-07T07:04:47;12.77;;;3.75;;
77888;SDS011;67082;41.704;44.768;2023-08-07T07:07:15;13.85;;;4.03;;
77888;SDS011;67082;41.704;44.768;2023-08-07T07:09:43;17.23;;;4.05;;
77888;SDS011;67082;41.704;44.768;2023-08-07T07:12:12;17.48;;;3.90;;
77888;SDS011;67082;41.704;44.768;2023-08-07T07:14:40;14.70;;;3.70;;
77888;SDS011;67082;41.704;44.768;2023-08-07T07:17:08;16.27;;;6.20;;
77888;SDS011;67082;41.704;44.768;2023-08-07T07:19:37;15.82;;;5.63;;
77888;SDS011;67082;41.704;44.768;2023-08-07T07:22:05;16.13;;;4.00;;
77888;SDS011;67082;41.704;44.768;2023-08-07T07:24:33;12.27;;;4.10;;
77888;SDS011;67082;41.704;44.768;2023-08-07T07:27:02;20.33;;;5.50;;
77888;SDS011;67082;41.704;44.768;2023-08-07T07:29:30;16.33;;;4.85;;
77888;SDS011;67082;41.704;44.768;2023-08-07T07:31:58;15.25;;;4.07;;
77888;SDS011;67082;41.704;44.768;2023-08-07T07:34:27;14.35;;;4.47;;
77888;SDS011;67082;41.704;44.768;2023-08-07T07:36:55;10.95;;;3.75;;
77888;SDS011;67082;41.704;44.768;2023-08-07T07:39:23;11.13;;;3.50;;
77888;SDS011;67082;41.704;44.768;2023-08-07T07:41:52;9.23;;;3.60;;
77888;SDS011;67082;41.704;44.768;2023-08-07T07:44:21;11.00;;;3.50;;
77888;SDS011;67082;41.704;44.768;2023-08-07T07:46:49;14.80;;;3.88;;
77888;SDS011;67082;41.704;44.768;2023-08-07T07:49:18;13.18;;;3.60;;
77888;SDS011;67082;41.704;44.768;2023-08-07T07:51:46;19.08;;;3.67;;
77888;SDS011;67082;41.704;44.768;2023-08-07T07:54:14;12.80;;;3.65;;
77888;SDS011;67082;41.704;44.768;2023-08-07T07:56:42;14.10;;;3.80;;
77888;SDS011;67082;41.704;44.768;2023-08-07T07:59:11;18.83;;;3.70;;
77888;SDS011;67082;41.704;44.768;2023-08-07T08:01:40;11.88;;;3.70;;
77888;SDS011;67082;41.704;44.768;2023-08-07T08:04:08;10.43;;;3.78;;
77888;SDS011;67082;41.704;44.768;2023-08-07T08:06:39;12.10;;;3.70;;
77888;SDS011;67082;41.704;44.768;2023-08-07T08:09:07;15.15;;;4.00;;
77888;SDS011;67082;41.704;44.768;2023-08-07T08:11:38;11.45;;;3.55;;
77888;SDS011;67082;41.704;44.768;2023-08-07T08:14:06;15.32;;;3.83;;
77888;SDS011;67082;41.704;44.768;2023-08-07T08:16:34;17.98;;;3.97;;
77888;SDS011;67082;41.704;44.768;2023-08-07T08:19:02;12.05;;;4.35;;
77888;SDS011;67082;41.704;44.768;2023-08-07T08:21:31;12.80;;;3.95;;
77888;SDS011;67082;41.704;44.768;2023-08-07T08:23:59;13.65;;;3.60;;
77888;SDS011;67082;41.704;44.768;2023-08-07T08:26:27;13.30;;;4.00;;
77888;SDS011;67082;41.704;44.768;2023-08-07T08:28:55;20.45;;;4.10;;
77888;SDS011;67082;41.704;44.768;2023-08-07T08:31:24;15.35;;;7.07;;
77888;SDS011;67082;41.704;44.768;2023-08-07T08:33:52;12.07;;;4.45;;
77888;SDS011;67082;41.704;44.768;2023-08-07T08:36:20;15.18;;;4.10;;
77888;SDS011;67082;41.704;44.768;2023-08-07T08:38:50;15.82;;;3.97;;
77888;SDS011;67082;41.704;44.768;2023-08-07T08:41:19;9.20;;;4.30;;
77888;SDS011;67082;41.704;44.768;2023-08-07T08:43:49;19.60;;;4.30;;
77888;SDS011;67082;41.704;44.768;2023-08-07T08:46:20;17.52;;;4.50;;
77888;SDS011;67082;41.704;44.768;2023-08-07T08:48:54;20.60;;;4.50;;
77888;SDS011;67082;41.704;44.768;2023-08-07T08:51:25;16.60;;;4.45;;
77888;SDS011;67082;41.704;44.768;2023-08-07T08:53:53;11.63;;;4.03;;
77888;SDS011;67082;41.704;44.768;2023-08-07T08:56:24;18.50;;;4.43;;
77888;SDS011;67082;41.704;44.768;2023-08-07T08:58:53;15.32;;;4.53;;
77888;SDS011;67082;41.704;44.768;2023-08-07T09:01:21;10.65;;;4.18;;
77888;SDS011;67082;41.704;44.768;2023-08-07T09:03:53;12.95;;;4.43;;
77888;SDS011;67082;41.704;44.768;2023-08-07T09:06:23;19.45;;;3.90;;
77888;SDS011;67082;41.704;44.768;2023-08-07T09:08:52;14.93;;;4.35;;
77888;SDS011;67082;41.704;44.768;2023-08-07T09:11:20;14.32;;;3.95;;
77888;SDS011;67082;41.704;44.768;2023-08-07T09:13:50;15.40;;;4.25;;
77888;SDS011;67082;41.704;44.768;2023-08-07T09:16:18;19.40;;;4.38;;
77888;SDS011;67082;41.704;44.768;2023-08-07T09:18:47;9.63;;;3.88;;
77888;SDS011;67082;41.704;44.768;2023-08-07T09:21:17;16.55;;;3.90;;
77888;SDS011;67082;41.704;44.768;2023-08-07T09:23:46;13.73;;;3.65;;
77888;SDS011;67082;41.704;44.768;2023-08-07T09:26:15;11.07;;;3.45;;
77888;SDS011;67082;41.704;44.768;2023-08-07T09:28:52;20.77;;;4.03;;
77888;SDS011;67082;41.704;44.768;2023-08-07T09:31:21;13.57;;;3.75;;
77888;SDS011;67082;41.704;44.768;2023-08-07T09:33:54;12.13;;;3.70;;
77888;SDS011;67082;41.704;44.768;2023-08-07T09:36:23;15.32;;;3.63;;
77888;SDS011;67082;41.704;44.768;2023-08-07T09:38:51;10.27;;;4.40;;
77888;SDS011;67082;41.704;44.768;2023-08-07T09:41:19;15.23;;;3.60;;
77888;SDS011;67082;41.704;44.768;2023-08-07T09:43:48;10.35;;;3.47;;
77888;SDS011;67082;41.704;44.768;2023-08-07T09:46:16;10.63;;;3.20;;
77888;SDS011;67082;41.704;44.768;2023-08-07T09:48:45;15.45;;;3.85;;
77888;SDS011;67082;41.704;44.768;2023-08-07T09:51:13;14.20;;;3.72;;
77888;SDS011;67082;41.704;44.768;2023-08-07T09:53:42;9.73;;;3.60;;
77888;SDS011;67082;41.704;44.768;2023-08-07T09:56:10;10.65;;;3.65;;
77888;SDS011;67082;41.704;44.768;2023-08-07T09:58:43;10.93;;;3.67;;
77888;SDS011;67082;41.704;44.768;2023-08-07T10:01:14;16.02;;;4.10;;
77888;SDS011;67082;41.704;44.768;2023-08-07T10:03:44;12.80;;;3.83;;
77888;SDS011;67082;41.704;44.768;2023-08-07T10:06:12;14.48;;;4.10;;
77888;SDS011;67082;41.704;44.768;2023-08-07T10:08:42;11.77;;;3.78;;
77888;SDS011;67082;41.704;44.768;2023-08-07T10:11:12;14.70;;;3.70;;
77888;SDS011;67082;41.704;44.768;2023-08-07T10:13:45;13.32;;;3.80;;
77888;SDS011;67082;41.704;44.768;2023-08-07T10:16:13;9.35;;;3.65;;
77888;SDS011;67082;41.704;44.768;2023-08-07T10:18:42;14.02;;;3.67;;
77888;SDS011;67082;41.704;44.768;2023-08-07T10:21:10;11.23;;;3.53;;
77888;SDS011;67082;41.704;44.768;2023-08-07T10:23:39;9.20;;;3.17;;
77888;SDS011;67082;41.704;44.768;2023-08-07T10:26:09;12.18;;;3.60;;
77888;SDS011;67082;41.704;44.768;2023-08-07T10:28:40;11.95;;;3.60;;
77888;SDS011;67082;41.704;44.768;2023-08-07T10:31:11;14.30;;;3.70;;
77888;SDS011;67082;41.704;44.768;2023-08-07T10:33:42;11.95;;;3.60;;
77888;SDS011;67082;41.704;44.768;2023-08-07T10:36:10;10.18;;;3.28;;
77888;SDS011;67082;41.704;44.768;2023-08-07T10:38:40;11.35;;;3.80;;
77888;SDS011;67082;41.704;44.768;2023-08-07T10:41:08;8.98;;;3.30;;
77888;SDS011;67082;41.704;44.768;2023-08-07T10:43:40;17.20;;;3.42;;
77888;SDS011;67082;41.704;44.768;2023-08-07T10:48:48;8.23;;;3.25;;
77888;SDS011;67082;41.704;44.768;2023-08-07T10:51:36;13.30;;;3.45;;
77888;SDS011;67082;41.704;44.768;2023-08-07T10:54:04;9.98;;;3.28;;
77888;SDS011;67082;41.704;44.768;2023-08-07T10:56:33;8.70;;;3.40;;
77888;SDS011;67082;41.704;44.768;2023-08-07T10:59:10;10.48;;;3.60;;
77888;SDS011;67082;41.704;44.768;2023-08-07T11:01:41;13.75;;;4.05;;
77888;SDS011;67082;41.704;44.768;2023-08-07T11:04:11;13.90;;;3.70;;
77888;SDS011;67082;41.704;44.768;2023-08-07T11:06:42;16.52;;;3.83;;
77888;SDS011;67082;41.704;44.768;2023-08-07T11:09:12;9.68;;;3.22;;
77888;SDS011;67082;41.704;44.768;2023-08-07T11:11:41;9.98;;;3.55;;
77888;SDS011;67082;41.704;44.768;2023-08-07T11:14:12;10.85;;;3.47;;
77888;SDS011;67082;41.704;44.768;2023-08-07T11:16:45;9.27;;;3.60;;
77888;SDS011;67082;41.704;44.768;2023-08-07T11:19:15;7.78;;;3.53;;
77888;SDS011;67082;41.704;44.768;2023-08-07T11:21:44;10.63;;;3.13;;
77888;SDS011;67082;41.704;44.768;2023-08-07T11:24:13;11.57;;;3.85;;
77888;SDS011;67082;41.704;44.768;2023-08-07T11:26:44;10.77;;;3.80;;
77888;SDS011;67082;41.704;44.768;2023-08-07T11:29:16;7.93;;;3.35;;
77888;SDS011;67082;41.704;44.768;2023-08-07T11:31:45;11.52;;;3.65;;
77888;SDS011;67082;41.704;44.768;2023-08-07T11:34:14;13.25;;;3.95;;
77888;SDS011;67082;41.704;44.768;2023-08-07T11:36:46;18.55;;;4.15;;
77888;SDS011;67082;41.704;44.768;2023-08-07T11:39:15;14.10;;;3.80;;
77888;SDS011;67082;41.704;44.768;2023-08-07T11:41:45;11.50;;;3.58;;
77888;SDS011;67082;41.704;44.768;2023-08-07T11:44:14;8.13;;;3.45;;
77888;SDS011;67082;41.704;44.768;2023-08-07T11:46:42;8.05;;;3.00;;
77888;SDS011;67082;41.704;44.768;2023-08-07T11:49:14;9.23;;;3.20;;
77888;SDS011;67082;41.704;44.768;2023-08-07T11:51:42;9.13;;;3.00;;
77888;SDS011;67082;41.704;44.768;2023-08-07T11:54:13;5.20;;;3.22;;
77888;SDS011;67082;41.704;44.768;2023-08-07T11:56:42;13.60;;;3.00;;
77888;SDS011;67082;41.704;44.768;2023-08-07T11:59:15;9.60;;;3.10;;
77888;SDS011;67082;41.704;44.768;2023-08-07T12:01:45;6.45;;;3.00;;
77888;SDS011;67082;41.704;44.768;2023-08-07T12:04:14;10.27;;;2.75;;
77888;SDS011;67082;41.704;44.768;2023-08-07T12:06:54;9.52;;;3.13;;
77888;SDS011;67082;41.704;44.768;2023-08-07T12:09:25;6.70;;;2.70;;
77888;SDS011;67082;41.704;44.768;2023-08-07T12:11:57;8.88;;;2.50;;
77888;SDS011;67082;41.704;44.768;2023-08-07T12:14:30;7.25;;;3.08;;
77888;SDS011;67082;41.704;44.768;2023-08-07T12:17:02;8.65;;;3.33;;
77888;SDS011;67082;41.704;44.768;2023-08-07T12:19:41;9.40;;;3.03;;
77888;SDS011;67082;41.704;44.768;2023-08-07T12:22:10;9.90;;;2.88;;
77888;SDS011;67082;41.704;44.768;2023-08-07T12:24:40;5.15;;;2.65;;
77888;SDS011;67082;41.704;44.768;2023-08-07T12:27:11;7.15;;;2.78;;
77888;SDS011;67082;41.704;44.768;2023-08-07T12:29:40;7.10;;;3.05;;
77888;SDS011;67082;41.704;44.768;2023-08-07T12:32:08;7.50;;;2.90;;
77888;SDS011;67082;41.704;44.768;2023-08-07T12:34:41;11.02;;;3.20;;
77888;SDS011;67082;41.704;44.768;2023-08-07T12:37:12;7.38;;;2.80;;
77888;SDS011;67082;41.704;44.768;2023-08-07T12:39:40;8.20;;;2.83;;
77888;SDS011;67082;41.704;44.768;2023-08-07T12:42:12;7.07;;;2.88;;
77888;SDS011;67082;41.704;44.768;2023-08-07T12:44:51;7.63;;;2.80;;
77888;SDS011;67082;41.704;44.768;2023-08-07T12:47:19;8.65;;;2.95;;
77888;SDS011;67082;41.704;44.768;2023-08-07T12:49:47;8.38;;;2.80;;
77888;SDS011;67082;41.704;44.768;2023-08-07T12:52:16;7.75;;;2.80;;
77888;SDS011;67082;41.704;44.768;2023-08-07T12:54:44;9.20;;;2.90;;
77888;SDS011;67082;41.704;44.768;2023-08-07T12:57:13;10.05;;;3.08;;
77888;SDS011;67082;41.704;44.768;2023-08-07T12:59:42;9.98;;;2.85;;
77888;SDS011;67082;41.704;44.768;2023-08-07T13:02:11;6.38;;;2.53;;
77888;SDS011;67082;41.704;44.768;2023-08-07T13:04:40;10.45;;;2.92;;
77888;SDS011;67082;41.704;44.768;2023-08-07T13:07:08;6.78;;;2.80;;
77888;SDS011;67082;41.704;44.768;2023-08-07T13:09:36;9.15;;;3.15;;
77888;SDS011;67082;41.704;44.768;2023-08-07T13:12:05;8.27;;;2.67;;
77888;SDS011;67082;41.704;44.768;2023-08-07T13:14:34;9.05;;;3.10;;
77888;SDS011;67082;41.704;44.768;2023-08-07T13:17:02;7.15;;;2.90;;
77888;SDS011;67082;41.704;44.768;2023-08-07T13:19:31;4.22;;;2.40;;
77888;SDS011;67082;41.704;44.768;2023-08-07T13:21:59;5.75;;;2.88;;
77888;SDS011;67082;41.704;44.768;2023-08-07T13:24:27;8.25;;;2.67;;
77888;SDS011;67082;41.704;44.768;2023-08-07T13:26:56;8.13;;;2.60;;
77888;SDS011;67082;41.704;44.768;2023-08-07T13:29:25;8.45;;;2.75;;
77888;SDS011;67082;41.704;44.768;2023-08-07T13:31:57;18.58;;;3.42;;
77888;SDS011;67082;41.704;44.768;2023-08-07T13:34:26;10.82;;;2.97;;
77888;SDS011;67082;41.704;44.768;2023-08-07T13:36:54;8.45;;;2.95;;
77888;SDS011;67082;41.704;44.768;2023-08-07T13:39:23;6.95;;;2.85;;
77888;SDS011;67082;41.704;44.768;2023-08-07T13:41:51;7.95;;;3.00;;
77888;SDS011;67082;41.704;44.768;2023-08-07T13:44:20;7.22;;;3.15;;
77888;SDS011;67082;41.704;44.768;2023-08-07T13:46:48;12.18;;;3.33;;
77888;SDS011;67082;41.704;44.768;2023-08-07T13:49:16;5.25;;;2.88;;
77888;SDS011;67082;41.704;44.768;2023-08-07T13:51:44;8.75;;;3.13;;
77888;SDS011;67082;41.704;44.768;2023-08-07T13:54:13;7.03;;;2.90;;
77888;SDS011;67082;41.704;44.768;2023-08-07T13:56:41;8.57;;;3.50;;
77888;SDS011;67082;41.704;44.768;2023-08-07T13:59:09;7.40;;;3.45;;
77888;SDS011;67082;41.704;44.768;2023-08-07T14:01:37;17.23;;;3.40;;
77888;SDS011;67082;41.704;44.768;2023-08-07T14:04:06;11.35;;;3.28;;
77888;SDS011;67082;41.704;44.768;2023-08-07T14:06:35;7.40;;;3.15;;
77888;SDS011;67082;41.704;44.768;2023-08-07T14:09:03;8.75;;;3.35;;
77888;SDS011;67082;41.704;44.768;2023-08-07T14:11:31;8.75;;;3.30;;
77888;SDS011;67082;41.704;44.768;2023-08-07T14:14:00;9.50;;;3.80;;
77888;SDS011;67082;41.704;44.768;2023-08-07T14:16:28;9.82;;;3.25;;
77888;SDS011;67082;41.704;44.768;2023-08-07T14:18:57;7.55;;;4.00;;
77888;SDS011;67082;41.704;44.768;2023-08-07T14:21:25;9.73;;;3.70;;
77888;SDS011;67082;41.704;44.768;2023-08-07T14:23:54;7.97;;;3.78;;
77888;SDS011;67082;41.704;44.768;2023-08-07T14:26:22;8.27;;;4.03;;
77888;SDS011;67082;41.704;44.768;2023-08-07T14:28:51;9.57;;;3.80;;
77888;SDS011;67082;41.704;44.768;2023-08-07T14:31:19;8.52;;;3.70;;
77888;SDS011;67082;41.704;44.768;2023-08-07T14:33:47;9.07;;;4.35;;
77888;SDS011;67082;41.704;44.768;2023-08-07T14:36:16;9.05;;;4.03;;
77888;SDS011;67082;41.704;44.768;2023-08-07T14:38:45;10.45;;;3.75;;
77888;SDS011;67082;41.704;44.768;2023-08-07T14:41:13;11.23;;;3.85;;
77888;SDS011;67082;41.704;44.768;2023-08-07T14:43:42;10.32;;;3.95;;